createdAt,value
2023-02-24T00:00:17.344Z,1014.33
2023-02-24T00:01:18.044Z,1014.35
2023-02-24T00:02:17.406Z,1014.34
2023-02-24T00:03:17.668Z,1014.32
2023-02-24T00:04:17.419Z,1014.33
2023-02-24T00:05:17.679Z,1014.30
2023-02-24T00:06:17.421Z,1014.32
2023-02-24T00:07:17.708Z,1014.32
2023-02-24T00:08:17.450Z,1014.29
2023-02-24T00:09:37.725Z,1014.26
2023-02-24T00:10:17.470Z,1014.26
2023-02-24T00:11:17.205Z,1014.25
2023-02-24T00:12:17.521Z,1014.26
2023-02-24T00:13:17.240Z,1014.23
2023-02-24T00:14:17.502Z,1014.20
2023-02-24T00:15:17.251Z,1014.17
2023-02-24T00:16:17.654Z,1014.19
2023-02-24T00:17:17.317Z,1014.19
2023-02-24T00:18:17.509Z,1014.19
2023-02-24T00:19:37.281Z,1014.17
2023-02-24T00:20:17.523Z,1014.12
2023-02-24T00:21:17.272Z,1014.14
2023-02-24T00:22:17.517Z,1014.16
2023-02-24T00:23:17.260Z,1014.10
2023-02-24T00:24:17.532Z,1014.16
2023-02-24T00:25:17.331Z,1014.13
2023-02-24T00:26:17.108Z,1014.11
2023-02-24T00:27:17.350Z,1014.07
2023-02-24T00:28:17.099Z,1014.07
2023-02-24T00:29:37.398Z,1014.09
2023-02-24T00:30:17.131Z,1014.11
2023-02-24T00:31:17.437Z,1014.10
2023-02-24T00:32:17.373Z,1014.11
2023-02-24T00:33:17.357Z,1014.12
2023-02-24T00:34:17.115Z,1014.16
2023-02-24T00:35:18.374Z,1014.15
2023-02-24T00:36:17.138Z,1014.09
2023-02-24T00:37:17.357Z,1014.12
2023-02-24T00:38:17.133Z,1014.08
2023-02-24T00:39:37.393Z,1014.10
2023-02-24T00:40:17.113Z,1014.13
2023-02-24T00:41:17.674Z,1014.09
2023-02-24T00:42:17.109Z,1014.07
2023-02-24T00:43:17.375Z,1014.08
2023-02-24T00:44:17.119Z,1014.08
2023-02-24T00:45:17.392Z,1014.04
2023-02-24T00:46:17.253Z,1014.07
2023-02-24T00:47:16.924Z,1013.99
2023-02-24T00:48:17.147Z,1013.99
2023-02-24T00:49:36.927Z,1013.96
2023-02-24T00:50:17.172Z,1013.95
2023-02-24T00:51:16.921Z,1013.98
2023-02-24T00:52:17.176Z,1013.97
2023-02-24T00:53:16.931Z,1013.98
2023-02-24T00:54:17.193Z,1013.92
2023-02-24T00:55:16.959Z,1013.92
2023-02-24T00:56:17.208Z,1013.92
2023-02-24T00:57:16.984Z,1013.84
2023-02-24T00:58:16.711Z,1013.88
2023-02-24T00:59:36.997Z,1013.86
2023-02-24T01:00:16.819Z,1013.92
2023-02-24T01:01:17.073Z,1013.90
2023-02-24T01:02:16.793Z,1013.90
2023-02-24T01:03:17.024Z,1013.89
2023-02-24T01:04:16.839Z,1013.86
2023-02-24T01:05:17.015Z,1013.85
2023-02-24T01:06:16.780Z,1013.80
2023-02-24T01:07:17.030Z,1013.77
2023-02-24T01:08:16.779Z,1013.77
2023-02-24T01:09:37.058Z,1013.79
2023-02-24T01:10:16.779Z,1013.77
2023-02-24T01:11:17.017Z,1013.80
2023-02-24T01:12:16.912Z,1013.79
2023-02-24T01:13:16.999Z,1013.75
2023-02-24T01:14:16.779Z,1013.73
2023-02-24T01:15:17.015Z,1013.77
2023-02-24T01:16:16.814Z,1013.70
2023-02-24T01:17:16.548Z,1013.67
2023-02-24T01:18:16.803Z,1013.70
2023-02-24T01:19:37.086Z,1013.73
2023-02-24T01:20:16.818Z,1013.76
2023-02-24T01:21:16.550Z,1013.74
2023-02-24T01:22:16.820Z,1013.71
2023-02-24T01:23:16.562Z,1013.70
2023-02-24T01:24:16.823Z,1013.72
2023-02-24T01:25:16.588Z,1013.70
2023-02-24T01:26:16.822Z,1013.69
2023-02-24T01:27:16.580Z,1013.68
2023-02-24T01:28:16.846Z,1013.68
2023-02-24T01:29:36.620Z,1013.65
2023-02-24T01:30:16.890Z,1013.70
2023-02-24T01:31:16.695Z,1013.65
2023-02-24T01:32:17.395Z,1013.61
2023-02-24T01:33:16.663Z,1013.55
2023-02-24T01:34:16.373Z,1013.53
2023-02-24T01:35:16.623Z,1013.52
2023-02-24T01:36:16.881Z,1013.51
2023-02-24T01:37:16.783Z,1013.56
2023-02-24T01:38:16.371Z,1013.57
2023-02-24T01:39:36.651Z,1013.52
2023-02-24T01:40:16.370Z,1013.54
2023-02-24T01:41:16.594Z,1013.50
2023-02-24T01:42:16.359Z,1013.53
2023-02-24T01:43:16.576Z,1013.53
2023-02-24T01:44:16.351Z,1013.50
2023-02-24T01:45:16.603Z,1013.52
2023-02-24T01:46:16.386Z,1013.48
2023-02-24T01:47:16.606Z,1013.46
2023-02-24T01:48:16.374Z,1013.40
2023-02-24T01:49:36.653Z,1013.41
2023-02-24T01:50:16.373Z,1013.37
2023-02-24T01:51:16.618Z,1013.35
2023-02-24T01:52:16.371Z,1013.39
2023-02-24T01:53:16.608Z,1013.33
2023-02-24T01:54:16.366Z,1013.34
2023-02-24T01:55:16.614Z,1013.33
2023-02-24T01:56:16.350Z,1013.31
2023-02-24T01:57:16.580Z,1013.36
2023-02-24T01:58:16.334Z,1013.29
2023-02-24T01:59:36.604Z,1013.30
2023-02-24T02:00:16.344Z,1013.25
2023-02-24T02:01:16.628Z,1013.29
2023-02-24T02:02:16.512Z,1013.21
2023-02-24T02:03:16.095Z,1013.19
2023-02-24T02:04:16.359Z,1013.14
2023-02-24T02:05:16.594Z,1013.15
2023-02-24T02:06:16.354Z,1013.14
2023-02-24T02:07:16.106Z,1013.12
2023-02-24T02:08:16.373Z,1013.10
2023-02-24T02:09:36.155Z,1013.08
2023-02-24T02:10:16.365Z,1013.06
2023-02-24T02:11:16.113Z,1013.09
2023-02-24T02:12:16.381Z,1013.03
2023-02-24T02:13:16.098Z,1013.04
2023-02-24T02:14:16.356Z,1013.02
2023-02-24T02:15:16.093Z,1012.96
2023-02-24T02:16:16.387Z,1013.01
2023-02-24T02:17:16.105Z,1013.03
2023-02-24T02:18:16.358Z,1012.98
2023-02-24T02:19:36.120Z,1012.98
2023-02-24T02:20:16.365Z,1012.95
2023-02-24T02:21:16.107Z,1012.94
2023-02-24T02:22:16.363Z,1012.87
2023-02-24T02:23:16.125Z,1012.90
2023-02-24T02:24:15.891Z,1012.83
2023-02-24T02:25:16.139Z,1012.80
2023-02-24T02:26:15.895Z,1012.73
2023-02-24T02:27:16.141Z,1012.71
2023-02-24T02:28:15.896Z,1012.70
2023-02-24T02:29:36.157Z,1012.69
2023-02-24T02:30:15.904Z,1012.72
2023-02-24T02:31:16.273Z,1012.70
2023-02-24T02:32:15.992Z,1012.66
2023-02-24T02:33:16.134Z,1012.63
2023-02-24T02:34:15.898Z,1012.63
2023-02-24T02:35:16.148Z,1012.61
2023-02-24T02:36:15.909Z,1012.62
2023-02-24T02:37:16.157Z,1012.58
2023-02-24T02:38:15.913Z,1012.51
2023-02-24T02:39:36.179Z,1012.50
2023-02-24T02:40:15.941Z,1012.54
2023-02-24T02:41:16.170Z,1012.52
2023-02-24T02:42:15.942Z,1012.50
2023-02-24T02:43:15.692Z,1012.48
2023-02-24T02:44:15.948Z,1012.52
2023-02-24T02:45:15.708Z,1012.48
2023-02-24T02:46:16.055Z,1012.47
2023-02-24T02:47:15.718Z,1012.48
2023-02-24T02:48:15.992Z,1012.48
2023-02-24T02:49:35.740Z,1012.46
2023-02-24T02:50:15.978Z,1012.47
2023-02-24T02:51:15.716Z,1012.49
2023-02-24T02:52:15.978Z,1012.44
2023-02-24T02:53:15.734Z,1012.46
2023-02-24T02:54:15.966Z,1012.47
2023-02-24T02:55:15.728Z,1012.44
2023-02-24T02:56:16.007Z,1012.46
2023-02-24T02:57:15.737Z,1012.44
2023-02-24T02:58:16.014Z,1012.45
2023-02-24T02:59:36.752Z,1012.46
2023-02-24T03:00:15.552Z,1012.43
2023-02-24T03:01:15.877Z,1012.43
2023-02-24T03:02:15.572Z,1012.40
2023-02-24T03:03:15.823Z,1012.36
2023-02-24T03:04:15.578Z,1012.38
2023-02-24T03:05:15.822Z,1012.33
2023-02-24T03:06:15.556Z,1012.30
2023-02-24T03:07:15.806Z,1012.31
2023-02-24T03:08:15.568Z,1012.28
2023-02-24T03:09:36.823Z,1012.29
2023-02-24T03:10:15.620Z,1012.28
2023-02-24T03:11:15.868Z,1012.32
2023-02-24T03:12:15.643Z,1012.32
2023-02-24T03:13:15.878Z,1012.33
2023-02-24T03:14:15.617Z,1012.32
2023-02-24T03:15:15.396Z,1012.31
2023-02-24T03:16:15.713Z,1012.28
2023-02-24T03:17:15.449Z,1012.29
2023-02-24T03:18:15.709Z,1012.25
2023-02-24T03:19:36.119Z,1012.31
2023-02-24T03:20:15.772Z,1012.23
2023-02-24T03:21:15.543Z,1012.24
2023-02-24T03:22:15.339Z,1012.27
2023-02-24T03:23:15.603Z,1012.24
2023-02-24T03:24:15.359Z,1012.24
2023-02-24T03:25:15.689Z,1012.18
2023-02-24T03:26:15.455Z,1012.16
2023-02-24T03:27:15.687Z,1012.22
2023-02-24T03:28:15.418Z,1012.23
2023-02-24T03:29:36.705Z,1012.18
2023-02-24T03:30:15.575Z,1012.17
2023-02-24T03:31:15.462Z,1012.19
2023-02-24T03:32:15.794Z,1012.16
2023-02-24T03:33:15.467Z,1012.12
2023-02-24T03:34:15.234Z,1012.13
2023-02-24T03:35:15.498Z,1012.15
2023-02-24T03:36:15.262Z,1012.07
2023-02-24T03:37:15.530Z,1012.11
2023-02-24T03:38:15.331Z,1012.04
2023-02-24T03:39:36.624Z,1012.03
2023-02-24T03:40:15.422Z,1012.00
2023-02-24T03:41:15.189Z,1012.00
2023-02-24T03:42:15.523Z,1012.07
2023-02-24T03:43:16.330Z,1012.00
2023-02-24T03:44:15.571Z,1012.01
2023-02-24T03:45:15.403Z,1012.00
2023-02-24T03:46:15.199Z,1012.00
2023-02-24T03:47:15.511Z,1011.97
2023-02-24T03:48:15.301Z,1011.99
2023-02-24T03:49:36.161Z,1011.91
2023-02-24T03:50:15.460Z,1011.95
2023-02-24T03:51:15.250Z,1011.94
2023-02-24T03:52:15.664Z,1011.89
2023-02-24T03:53:15.300Z,1011.89
2023-02-24T03:54:15.099Z,1011.87
2023-02-24T03:55:15.411Z,1011.80
2023-02-24T03:56:15.176Z,1011.79
2023-02-24T03:57:15.467Z,1011.80
2023-02-24T03:58:15.251Z,1011.77
2023-02-24T03:59:36.034Z,1011.79
2023-02-24T04:00:15.352Z,1011.77
2023-02-24T04:01:15.132Z,1011.75
2023-02-24T04:02:15.485Z,1011.75
2023-02-24T04:03:15.170Z,1011.75
2023-02-24T04:04:15.024Z,1011.75
2023-02-24T04:05:15.190Z,1011.77
2023-02-24T04:06:14.924Z,1011.76
2023-02-24T04:07:15.169Z,1011.76
2023-02-24T04:08:14.905Z,1011.77
2023-02-24T04:09:36.555Z,1011.75
2023-02-24T04:10:14.958Z,1011.77
2023-02-24T04:11:15.236Z,1011.75
2023-02-24T04:12:15.036Z,1011.69
2023-02-24T04:13:15.229Z,1011.72
2023-02-24T04:14:14.968Z,1011.70
2023-02-24T04:15:15.240Z,1011.71
2023-02-24T04:16:15.037Z,1011.64
2023-02-24T04:17:15.246Z,1011.62
2023-02-24T04:18:14.981Z,1011.67
2023-02-24T04:19:36.559Z,1011.67
2023-02-24T04:20:15.040Z,1011.69
2023-02-24T04:21:14.802Z,1011.69
2023-02-24T04:22:15.043Z,1011.67
2023-02-24T04:23:14.847Z,1011.62
2023-02-24T04:24:15.074Z,1011.65
2023-02-24T04:25:14.841Z,1011.62
2023-02-24T04:26:15.086Z,1011.59
2023-02-24T04:27:14.840Z,1011.57
2023-02-24T04:28:15.072Z,1011.55
2023-02-24T04:29:35.582Z,1011.56
2023-02-24T04:30:14.638Z,1011.56
2023-02-24T04:31:15.022Z,1011.54
2023-02-24T04:32:14.779Z,1011.59
2023-02-24T04:33:14.906Z,1011.55
2023-02-24T04:34:14.642Z,1011.55
2023-02-24T04:35:14.903Z,1011.54
2023-02-24T04:36:14.650Z,1011.53
2023-02-24T04:37:14.917Z,1011.56
2023-02-24T04:38:14.631Z,1011.61
2023-02-24T04:39:35.695Z,1011.56
2023-02-24T04:40:14.693Z,1011.52
2023-02-24T04:41:14.962Z,1011.53
2023-02-24T04:42:14.704Z,1011.54
2023-02-24T04:43:14.970Z,1011.51
2023-02-24T04:44:14.722Z,1011.45
2023-02-24T04:45:14.974Z,1011.44
2023-02-24T04:46:14.784Z,1011.45
2023-02-24T04:47:14.483Z,1011.47
2023-02-24T04:48:14.731Z,1011.45
2023-02-24T04:49:35.492Z,1011.45
2023-02-24T04:50:14.773Z,1011.43
2023-02-24T04:51:14.540Z,1011.44
2023-02-24T04:52:14.785Z,1011.43
2023-02-24T04:53:14.545Z,1011.43
2023-02-24T04:54:14.826Z,1011.47
2023-02-24T04:55:14.554Z,1011.46
2023-02-24T04:56:14.816Z,1011.44
2023-02-24T04:57:14.558Z,1011.47
2023-02-24T04:58:14.804Z,1011.42
2023-02-24T04:59:35.275Z,1011.44
2023-02-24T05:00:14.356Z,1011.47
2023-02-24T05:01:14.642Z,1011.46
2023-02-24T05:02:14.385Z,1011.43
2023-02-24T05:03:14.658Z,1011.41
2023-02-24T05:04:14.577Z,1011.40
2023-02-24T05:05:14.685Z,1011.41
2023-02-24T05:06:14.409Z,1011.31
2023-02-24T05:07:14.657Z,1011.34
2023-02-24T05:08:14.416Z,1011.31
2023-02-24T05:09:36.185Z,1011.28
2023-02-24T05:10:14.472Z,1011.27
2023-02-24T05:11:14.725Z,1011.22
2023-02-24T05:12:14.458Z,1011.21
2023-02-24T05:13:14.241Z,1011.25
2023-02-24T05:14:14.468Z,1011.21
2023-02-24T05:15:14.241Z,1011.14
2023-02-24T05:16:14.516Z,1011.14
2023-02-24T05:17:14.260Z,1011.12
2023-02-24T05:18:14.533Z,1011.16
2023-02-24T05:19:35.207Z,1011.15
2023-02-24T05:20:14.564Z,1011.13
2023-02-24T05:21:14.354Z,1011.13
2023-02-24T05:22:14.616Z,1011.10
2023-02-24T05:23:14.372Z,1011.10
2023-02-24T05:24:14.106Z,1011.05
2023-02-24T05:25:14.392Z,1011.00
2023-02-24T05:26:14.126Z,1011.01
2023-02-24T05:27:14.387Z,1010.99
2023-02-24T05:28:14.151Z,1010.98
2023-02-24T05:29:35.424Z,1010.97
2023-02-24T05:30:14.197Z,1010.99
2023-02-24T05:31:14.575Z,1010.98
2023-02-24T05:32:14.293Z,1010.96
2023-02-24T05:33:14.460Z,1010.94
2023-02-24T05:34:14.208Z,1010.96
2023-02-24T05:35:14.452Z,1010.97
2023-02-24T05:36:14.197Z,1010.91
2023-02-24T05:37:14.470Z,1010.94
2023-02-24T05:38:14.210Z,1010.94
2023-02-24T05:39:35.465Z,1010.91
2023-02-24T05:40:14.242Z,1010.90
2023-02-24T05:41:13.987Z,1010.94
2023-02-24T05:42:14.234Z,1010.90
2023-02-24T05:43:14.006Z,1010.91
2023-02-24T05:44:14.255Z,1010.91
2023-02-24T05:45:13.984Z,1010.91
2023-02-24T05:46:14.249Z,1010.86
2023-02-24T05:47:14.013Z,1010.90
2023-02-24T05:48:14.242Z,1010.89
2023-02-24T05:49:35.034Z,1010.89
2023-02-24T05:50:14.274Z,1010.91
2023-02-24T05:51:14.033Z,1010.87
2023-02-24T05:52:14.269Z,1010.79
2023-02-24T05:53:15.472Z,1010.77
2023-02-24T05:54:14.287Z,1010.75
2023-02-24T05:55:14.144Z,1010.78
2023-02-24T05:56:13.807Z,1010.76
2023-02-24T05:57:14.093Z,1010.70
2023-02-24T05:58:13.850Z,1010.72
2023-02-24T05:59:34.742Z,1010.72
2023-02-24T06:00:13.891Z,1010.70
2023-02-24T06:01:14.168Z,1010.69
2023-02-24T06:02:13.959Z,1010.67
2023-02-24T06:03:14.275Z,1010.68
2023-02-24T06:04:13.936Z,1010.65
2023-02-24T06:05:14.213Z,1010.61
2023-02-24T06:06:14.037Z,1010.57
2023-02-24T06:07:13.978Z,1010.56
2023-02-24T06:08:14.034Z,1010.57
2023-02-24T06:09:34.781Z,1010.54
2023-02-24T06:10:14.056Z,1010.57
2023-02-24T06:11:13.831Z,1010.56
2023-02-24T06:12:14.098Z,1010.55
2023-02-24T06:13:13.839Z,1010.52
2023-02-24T06:14:14.077Z,1010.50
2023-02-24T06:15:13.853Z,1010.44
2023-02-24T06:16:13.627Z,1010.39
2023-02-24T06:17:13.862Z,1010.39
2023-02-24T06:18:13.602Z,1010.41
2023-02-24T06:19:34.868Z,1010.39
2023-02-24T06:20:13.737Z,1010.38
2023-02-24T06:21:13.915Z,1010.38
2023-02-24T06:22:13.669Z,1010.34
2023-02-24T06:23:13.931Z,1010.37
2023-02-24T06:24:13.671Z,1010.31
2023-02-24T06:25:13.931Z,1010.32
2023-02-24T06:26:13.684Z,1010.35
2023-02-24T06:27:13.944Z,1010.35
2023-02-24T06:28:13.669Z,1010.36
2023-02-24T06:29:33.950Z,1010.35
2023-02-24T06:30:13.687Z,1010.36
2023-02-24T06:31:13.451Z,1010.33
2023-02-24T06:32:13.813Z,1010.30
2023-02-24T06:33:13.454Z,1010.31
2023-02-24T06:34:13.719Z,1010.27
2023-02-24T06:35:13.952Z,1010.26
2023-02-24T06:36:13.708Z,1010.30
2023-02-24T06:37:13.455Z,1010.24
2023-02-24T06:38:13.676Z,1010.23
2023-02-24T06:39:36.191Z,1010.20
2023-02-24T06:40:13.706Z,1010.18
2023-02-24T06:41:13.484Z,1010.18
2023-02-24T06:42:13.724Z,1010.22
2023-02-24T06:43:13.459Z,1010.22
2023-02-24T06:44:13.820Z,1010.19
2023-02-24T06:45:13.465Z,1010.19
2023-02-24T06:46:13.798Z,1010.16
2023-02-24T06:47:13.515Z,1010.13
2023-02-24T06:48:13.737Z,1010.13
2023-02-24T06:49:33.514Z,1010.08
2023-02-24T06:50:13.753Z,1010.07
2023-02-24T06:51:13.574Z,1010.07
2023-02-24T06:52:13.762Z,1010.08
2023-02-24T06:53:13.518Z,1010.08
2023-02-24T06:54:13.281Z,1010.11
2023-02-24T06:55:13.529Z,1010.08
2023-02-24T06:56:13.272Z,1010.04
2023-02-24T06:57:13.552Z,1010.09
2023-02-24T06:58:13.281Z,1010.08
2023-02-24T06:59:33.569Z,1010.10
2023-02-24T07:00:13.337Z,1010.07
2023-02-24T07:01:13.609Z,1010.06
2023-02-24T07:02:13.359Z,1010.09
2023-02-24T07:03:13.570Z,1010.08
2023-02-24T07:04:13.387Z,1010.10
2023-02-24T07:05:13.564Z,1010.08
2023-02-24T07:06:13.314Z,1010.07
2023-02-24T07:07:13.550Z,1010.06
2023-02-24T07:08:13.302Z,1010.01
2023-02-24T07:09:33.564Z,1009.99
2023-02-24T07:10:13.296Z,1009.93
2023-02-24T07:11:13.544Z,1009.89
2023-02-24T07:12:13.314Z,1009.91
2023-02-24T07:13:13.061Z,1009.82
2023-02-24T07:14:13.329Z,1009.85
2023-02-24T07:15:13.562Z,1009.82
2023-02-24T07:16:14.398Z,1009.82
2023-02-24T07:17:13.172Z,1009.82
2023-02-24T07:18:13.483Z,1009.85
2023-02-24T07:19:33.932Z,1009.79
2023-02-24T07:20:13.005Z,1009.77
2023-02-24T07:21:13.241Z,1009.77
2023-02-24T07:22:13.014Z,1009.80
2023-02-24T07:23:13.279Z,1009.76
2023-02-24T07:24:13.040Z,1009.78
2023-02-24T07:25:13.273Z,1009.78
2023-02-24T07:26:13.074Z,1009.77
2023-02-24T07:27:13.314Z,1009.75
2023-02-24T07:28:13.090Z,1009.75
2023-02-24T07:29:34.595Z,1009.77
2023-02-24T07:30:13.155Z,1009.81
2023-02-24T07:31:12.956Z,1009.78
2023-02-24T07:32:13.258Z,1009.74
2023-02-24T07:33:12.880Z,1009.74
2023-02-24T07:34:13.154Z,1009.71
2023-02-24T07:35:12.903Z,1009.68
2023-02-24T07:36:13.166Z,1009.68
2023-02-24T07:37:12.910Z,1009.69
2023-02-24T07:38:13.171Z,1009.66
2023-02-24T07:39:34.397Z,1009.67
2023-02-24T07:40:13.205Z,1009.70
2023-02-24T07:41:12.943Z,1009.65
2023-02-24T07:42:13.217Z,1009.63
2023-02-24T07:43:12.962Z,1009.60
2023-02-24T07:44:13.242Z,1009.64
2023-02-24T07:45:13.029Z,1009.64
2023-02-24T07:46:12.808Z,1009.63
2023-02-24T07:47:13.004Z,1009.70
2023-02-24T07:48:12.752Z,1009.68
2023-02-24T07:49:33.787Z,1009.62
2023-02-24T07:50:12.799Z,1009.61
2023-02-24T07:51:13.045Z,1009.62
2023-02-24T07:52:12.800Z,1009.60
2023-02-24T07:53:13.055Z,1009.58
2023-02-24T07:54:12.847Z,1009.66
2023-02-24T07:55:13.107Z,1009.62
2023-02-24T07:56:12.865Z,1009.63
2023-02-24T07:57:12.602Z,1009.65
2023-02-24T07:58:12.864Z,1009.69
2023-02-24T07:59:34.129Z,1009.58
2023-02-24T08:00:14.583Z,1009.63
2023-02-24T08:01:12.694Z,1009.61
2023-02-24T08:02:12.988Z,1009.58
2023-02-24T08:03:12.714Z,1009.57
2023-02-24T08:04:12.981Z,1009.54
2023-02-24T08:05:12.750Z,1009.49
2023-02-24T08:06:13.028Z,1009.46
2023-02-24T08:07:12.745Z,1009.49
2023-02-24T08:08:12.518Z,1009.48
2023-02-24T08:09:34.261Z,1009.45
2023-02-24T08:10:12.580Z,1009.41
2023-02-24T08:11:12.838Z,1009.38
2023-02-24T08:12:12.631Z,1009.36
2023-02-24T08:13:12.882Z,1009.37
2023-02-24T08:14:12.636Z,1009.35
2023-02-24T08:15:12.877Z,1009.30
2023-02-24T08:16:12.681Z,1009.35
2023-02-24T08:17:12.884Z,1009.30
2023-02-24T08:18:12.653Z,1009.25
2023-02-24T08:19:33.318Z,1009.25
2023-02-24T08:20:12.771Z,1009.17
2023-02-24T08:21:12.438Z,1009.15
2023-02-24T08:22:12.684Z,1009.15
2023-02-24T08:23:12.449Z,1009.07
2023-02-24T08:24:12.704Z,1009.07
2023-02-24T08:25:12.456Z,1009.07
2023-02-24T08:26:12.823Z,1009.08
2023-02-24T08:27:12.460Z,1009.05
2023-02-24T08:28:13.007Z,1009.04
2023-02-24T08:29:33.932Z,1009.06
2023-02-24T08:30:12.749Z,1009.08
2023-02-24T08:31:12.612Z,1009.10
2023-02-24T08:32:12.390Z,1009.11
2023-02-24T08:33:12.498Z,1009.04
2023-02-24T08:34:12.266Z,1009.04
2023-02-24T08:35:12.505Z,1008.94
2023-02-24T08:36:12.279Z,1008.94
2023-02-24T08:37:12.513Z,1008.92
2023-02-24T08:38:12.286Z,1008.93
2023-02-24T08:39:34.067Z,1008.89
2023-02-24T08:40:12.383Z,1008.92
2023-02-24T08:41:12.621Z,1008.93
2023-02-24T08:42:12.389Z,1008.88
2023-02-24T08:43:12.620Z,1008.89
2023-02-24T08:44:12.383Z,1008.86
2023-02-24T08:45:12.121Z,1008.86
2023-02-24T08:46:12.467Z,1008.91
2023-02-24T08:47:12.137Z,1008.87
2023-02-24T08:48:12.398Z,1008.84
2023-02-24T08:49:32.854Z,1008.84
2023-02-24T08:50:12.407Z,1008.86
2023-02-24T08:51:12.158Z,1008.82
2023-02-24T08:52:12.412Z,1008.79
2023-02-24T08:53:12.165Z,1008.76
2023-02-24T08:54:12.414Z,1008.76
2023-02-24T08:55:12.174Z,1008.77
2023-02-24T08:56:12.454Z,1008.75
2023-02-24T08:57:12.212Z,1008.68
2023-02-24T08:58:12.481Z,1008.70
2023-02-24T08:59:32.828Z,1008.70
2023-02-24T09:00:12.025Z,1008.68
2023-02-24T09:01:12.344Z,1008.76
2023-02-24T09:02:12.055Z,1008.74
2023-02-24T09:03:12.326Z,1008.73
2023-02-24T09:04:12.083Z,1008.73
2023-02-24T09:05:14.524Z,1008.70
2023-02-24T09:06:12.101Z,1008.67
2023-02-24T09:07:12.371Z,1008.67
2023-02-24T09:08:12.135Z,1008.66
2023-02-24T09:09:33.858Z,1008.63
2023-02-24T09:10:12.179Z,1008.66
2023-02-24T09:11:11.932Z,1008.60
2023-02-24T09:12:12.204Z,1008.55
2023-02-24T09:13:11.971Z,1008.55
2023-02-24T09:14:25.584Z,1008.54
2023-02-24T09:15:12.975Z,1008.51
2023-02-24T09:16:12.255Z,1008.48
2023-02-24T09:17:12.010Z,1008.41
2023-02-24T09:18:12.237Z,1008.40
2023-02-24T09:19:33.458Z,1008.38
2023-02-24T09:20:12.268Z,1008.36
2023-02-24T09:21:12.021Z,1008.30
2023-02-24T09:22:20.803Z,1008.28
2023-02-24T09:23:13.017Z,1008.24
2023-02-24T09:24:11.928Z,1008.19
2023-02-24T09:25:12.031Z,1008.16
2023-02-24T09:26:11.817Z,1008.19
2023-02-24T09:27:12.067Z,1008.16
2023-02-24T09:28:11.827Z,1008.16
2023-02-24T09:29:33.702Z,1008.15
2023-02-24T09:30:11.906Z,1008.14
2023-02-24T09:31:12.273Z,1008.15
2023-02-24T09:32:12.000Z,1008.11
2023-02-24T09:33:12.341Z,1008.12
2023-02-24T09:34:11.911Z,1008.08
2023-02-24T09:35:11.660Z,1008.08
2023-02-24T09:36:11.929Z,1008.08
2023-02-24T09:37:11.714Z,1008.07
2023-02-24T09:38:11.938Z,1008.01
2023-02-24T09:39:32.357Z,1007.99
2023-02-24T09:40:12.028Z,1007.99
2023-02-24T09:41:18.920Z,1007.95
2023-02-24T09:42:13.033Z,1007.92
2023-02-24T09:43:11.783Z,1007.85
2023-02-24T09:44:11.545Z,1007.90
2023-02-24T09:45:11.788Z,1007.88
2023-02-24T09:46:11.649Z,1007.82
2023-02-24T09:47:11.789Z,1007.84
2023-02-24T09:48:11.574Z,1007.87
2023-02-24T09:49:33.301Z,1007.87
2023-02-24T09:50:11.630Z,1007.83
2023-02-24T09:51:11.866Z,1007.82
2023-02-24T09:52:11.627Z,1007.81
2023-02-24T09:53:11.947Z,1007.83
2023-02-24T09:54:11.629Z,1007.84
2023-02-24T09:55:11.901Z,1007.86
2023-02-24T09:56:11.662Z,1007.82
2023-02-24T09:57:11.921Z,1007.77
2023-02-24T09:58:11.661Z,1007.81
2023-02-24T09:59:33.374Z,1007.78
2023-02-24T10:00:11.668Z,1007.84
2023-02-24T10:01:11.448Z,1007.78
2023-02-24T10:02:11.703Z,1007.74
2023-02-24T10:03:11.418Z,1007.76
2023-02-24T10:04:20.814Z,1007.76
2023-02-24T10:05:12.405Z,1007.71
2023-02-24T10:06:11.650Z,1007.69
2023-02-24T10:07:11.394Z,1007.66
2023-02-24T10:08:11.655Z,1007.67
2023-02-24T10:09:32.875Z,1007.67
2023-02-24T10:10:11.660Z,1007.63
2023-02-24T10:11:11.453Z,1007.66
2023-02-24T10:12:11.747Z,1007.69
2023-02-24T10:13:11.430Z,1007.59
2023-02-24T10:14:11.718Z,1007.56
2023-02-24T10:15:11.446Z,1007.51
2023-02-24T10:16:11.702Z,1007.58
2023-02-24T10:17:11.432Z,1007.52
2023-02-24T10:18:11.203Z,1007.52
2023-02-24T10:19:32.899Z,1007.51
2023-02-24T10:20:11.207Z,1007.57
2023-02-24T10:21:11.491Z,1007.51
2023-02-24T10:22:11.222Z,1007.50
2023-02-24T10:23:11.460Z,1007.50
2023-02-24T10:24:11.220Z,1007.45
2023-02-24T10:25:11.473Z,1007.47
2023-02-24T10:26:11.238Z,1007.51
2023-02-24T10:27:16.899Z,1007.50
2023-02-24T10:28:12.234Z,1007.52
2023-02-24T10:29:32.955Z,1007.54
2023-02-24T10:30:11.568Z,1007.49
2023-02-24T10:31:11.627Z,1007.56
2023-02-24T10:32:11.442Z,1007.52
2023-02-24T10:33:11.504Z,1007.52
2023-02-24T10:34:11.245Z,1007.51
2023-02-24T10:35:11.496Z,1007.56
2023-02-24T10:36:11.282Z,1007.49
2023-02-24T10:37:16.567Z,1007.45
2023-02-24T10:38:12.237Z,1007.48
2023-02-24T10:39:32.962Z,1007.40
2023-02-24T10:40:11.254Z,1007.42
2023-02-24T10:41:10.993Z,1007.41
2023-02-24T10:42:11.293Z,1007.36
2023-02-24T10:43:11.080Z,1007.35
2023-02-24T10:44:11.250Z,1007.35
2023-02-24T10:45:17.334Z,1007.37
2023-02-24T10:46:12.310Z,1007.34
2023-02-24T10:47:11.002Z,1007.33
2023-02-24T10:48:12.642Z,1007.40
2023-02-24T10:49:31.924Z,1007.35
2023-02-24T10:50:11.356Z,1007.38
2023-02-24T10:51:11.108Z,1007.32
2023-02-24T10:52:10.882Z,1007.28
2023-02-24T10:53:13.118Z,1007.24
2023-02-24T10:54:10.880Z,1007.32
2023-02-24T10:55:11.129Z,1007.29
2023-02-24T10:56:10.894Z,1007.33
2023-02-24T10:57:11.136Z,1007.26
2023-02-24T10:58:10.893Z,1007.30
2023-02-24T10:59:32.762Z,1007.22
2023-02-24T11:00:10.904Z,1007.22
2023-02-24T11:01:11.213Z,1007.18
2023-02-24T11:02:10.935Z,1007.16
2023-02-24T11:03:11.212Z,1007.14
2023-02-24T11:04:10.966Z,1007.11
2023-02-24T11:05:10.719Z,1007.10
2023-02-24T11:06:10.996Z,1007.09
2023-02-24T11:07:10.758Z,1007.11
2023-02-24T11:08:10.995Z,1007.14
2023-02-24T11:09:32.252Z,1007.13
2023-02-24T11:10:11.030Z,1007.10
2023-02-24T11:11:12.796Z,1007.07
2023-02-24T11:12:11.037Z,1007.07
2023-02-24T11:13:10.800Z,1007.09
2023-02-24T11:14:11.069Z,1007.12
2023-02-24T11:15:10.805Z,1007.07
2023-02-24T11:16:11.107Z,1007.05
2023-02-24T11:17:10.851Z,1007.02
2023-02-24T11:18:10.614Z,1007.03
2023-02-24T11:19:31.393Z,1006.98
2023-02-24T11:20:10.699Z,1007.05
2023-02-24T11:21:10.955Z,1007.02
2023-02-24T11:22:10.643Z,1006.90
2023-02-24T11:23:10.920Z,1006.95
2023-02-24T11:24:10.661Z,1006.96
2023-02-24T11:25:10.918Z,1006.85
2023-02-24T11:26:10.679Z,1006.88
2023-02-24T11:27:10.996Z,1006.87
2023-02-24T11:28:10.734Z,1006.86
2023-02-24T11:29:32.580Z,1006.81
2023-02-24T11:30:10.783Z,1006.80
2023-02-24T11:31:10.633Z,1006.81
2023-02-24T11:32:11.607Z,1006.73
2023-02-24T11:33:09.927Z,1006.73
2023-02-24T11:34:09.906Z,1006.72
2023-02-24T11:35:09.914Z,1006.72
2023-02-24T11:36:09.944Z,1006.66
2023-02-24T11:37:09.928Z,1006.66
2023-02-24T11:38:10.423Z,1006.64
2023-02-24T11:39:29.941Z,1006.63
2023-02-24T11:40:09.911Z,1006.64
2023-02-24T11:41:10.680Z,1006.58
2023-02-24T11:42:10.412Z,1006.57
2023-02-24T11:43:10.666Z,1006.57
2023-02-24T11:44:13.314Z,1006.53
2023-02-24T11:45:10.678Z,1006.52
2023-02-24T11:46:10.454Z,1006.52
2023-02-24T11:47:10.722Z,1006.51
2023-02-24T11:48:10.449Z,1006.51
2023-02-24T11:49:30.741Z,1006.44
2023-02-24T11:50:10.500Z,1006.46
2023-02-24T11:51:10.719Z,1006.46
2023-02-24T11:52:10.445Z,1006.44
2023-02-24T11:53:10.725Z,1006.33
2023-02-24T11:54:10.452Z,1006.36
2023-02-24T11:55:10.762Z,1006.40
2023-02-24T11:56:10.513Z,1006.30
2023-02-24T11:57:10.245Z,1006.33
2023-02-24T11:58:09.666Z,1006.32
2023-02-24T11:59:29.715Z,1006.29
2023-02-24T12:00:10.451Z,1006.31
2023-02-24T12:01:10.208Z,1006.30
2023-02-24T12:02:10.458Z,1006.33
2023-02-24T12:03:11.721Z,1006.27
2023-02-24T12:04:10.486Z,1006.31
2023-02-24T12:05:11.701Z,1006.31